sensor_id;sensor_type;location;lat;lon;timestamp;P1;durP1;ratioP1;P2;durP2;ratioP2
22841;SDS011;11587;47.064;15.444;2022-08-27T00:00:28;16.08;;;6.95;;
22841;SDS011;11587;47.064;15.444;2022-08-27T00:02:54;12.75;;;7.07;;
22841;SDS011;11587;47.064;15.444;2022-08-27T00:07:46;11.30;;;7.18;;
22841;SDS011;11587;47.064;15.444;2022-08-27T00:10:15;13.50;;;7.00;;
22841;SDS011;11587;47.064;15.444;2022-08-27T00:12:44;11.00;;;6.97;;
22841;SDS011;11587;47.064;15.444;2022-08-27T00:15:12;12.70;;;7.63;;
22841;SDS011;11587;47.064;15.444;2022-08-27T00:17:39;13.02;;;7.15;;
22841;SDS011;11587;47.064;15.444;2022-08-27T00:22:32;11.73;;;7.20;;
22841;SDS011;11587;47.064;15.444;2022-08-27T00:24:59;15.97;;;7.47;;
22841;SDS011;11587;47.064;15.444;2022-08-27T00:27:25;12.00;;;7.13;;
22841;SDS011;11587;47.064;15.444;2022-08-27T00:29:51;13.00;;;7.40;;
22841;SDS011;11587;47.064;15.444;2022-08-27T00:32:16;13.70;;;7.55;;
22841;SDS011;11587;47.064;15.444;2022-08-27T00:34:43;13.25;;;7.10;;
22841;SDS011;11587;47.064;15.444;2022-08-27T00:37:09;18.00;;;8.03;;
22841;SDS011;11587;47.064;15.444;2022-08-27T00:39:35;14.48;;;7.40;;
22841;SDS011;11587;47.064;15.444;2022-08-27T00:42:02;12.80;;;7.20;;
22841;SDS011;11587;47.064;15.444;2022-08-27T00:46:55;14.50;;;7.87;;
22841;SDS011;11587;47.064;15.444;2022-08-27T00:49:39;13.43;;;7.63;;
22841;SDS011;11587;47.064;15.444;2022-08-27T00:52:25;16.37;;;7.20;;
22841;SDS011;11587;47.064;15.444;2022-08-27T00:54:53;12.80;;;7.30;;
22841;SDS011;11587;47.064;15.444;2022-08-27T00:57:32;13.20;;;7.60;;
22841;SDS011;11587;47.064;15.444;2022-08-27T01:00:00;14.48;;;7.63;;
22841;SDS011;11587;47.064;15.444;2022-08-27T01:02:27;14.07;;;7.47;;
22841;SDS011;11587;47.064;15.444;2022-08-27T01:07:20;14.57;;;7.60;;
22841;SDS011;11587;47.064;15.444;2022-08-27T01:09:47;16.30;;;7.43;;
22841;SDS011;11587;47.064;15.444;2022-08-27T01:12:15;15.45;;;7.63;;
22841;SDS011;11587;47.064;15.444;2022-08-27T01:14:42;11.75;;;7.30;;
22841;SDS011;11587;47.064;15.444;2022-08-27T01:22:24;13.10;;;7.35;;
22841;SDS011;11587;47.064;15.444;2022-08-27T01:24:59;12.13;;;7.65;;
22841;SDS011;11587;47.064;15.444;2022-08-27T01:27:29;14.45;;;7.75;;
22841;SDS011;11587;47.064;15.444;2022-08-27T01:29:55;16.58;;;7.68;;
22841;SDS011;11587;47.064;15.444;2022-08-27T01:32:24;13.45;;;7.95;;
22841;SDS011;11587;47.064;15.444;2022-08-27T01:34:52;16.15;;;7.40;;
22841;SDS011;11587;47.064;15.444;2022-08-27T01:37:19;14.15;;;7.82;;
22841;SDS011;11587;47.064;15.444;2022-08-27T01:39:46;11.55;;;7.60;;
22841;SDS011;11587;47.064;15.444;2022-08-27T01:42:26;12.85;;;7.50;;
22841;SDS011;11587;47.064;15.444;2022-08-27T01:45:06;12.18;;;7.72;;
22841;SDS011;11587;47.064;15.444;2022-08-27T01:47:59;13.98;;;7.70;;
22841;SDS011;11587;47.064;15.444;2022-08-27T01:50:30;12.40;;;7.80;;
22841;SDS011;11587;47.064;15.444;2022-08-27T01:53:02;12.30;;;7.07;;
22841;SDS011;11587;47.064;15.444;2022-08-27T01:57:55;12.47;;;7.60;;
22841;SDS011;11587;47.064;15.444;2022-08-27T02:00:24;11.30;;;7.22;;
22841;SDS011;11587;47.064;15.444;2022-08-27T02:02:53;14.35;;;7.75;;
22841;SDS011;11587;47.064;15.444;2022-08-27T02:05:20;12.93;;;7.70;;
22841;SDS011;11587;47.064;15.444;2022-08-27T02:07:47;14.32;;;7.50;;
22841;SDS011;11587;47.064;15.444;2022-08-27T02:10:16;15.80;;;7.78;;
22841;SDS011;11587;47.064;15.444;2022-08-27T02:12:44;14.48;;;7.97;;
22841;SDS011;11587;47.064;15.444;2022-08-27T02:15:11;12.90;;;7.63;;
22841;SDS011;11587;47.064;15.444;2022-08-27T02:17:38;11.95;;;7.40;;
22841;SDS011;11587;47.064;15.444;2022-08-27T02:24:55;14.85;;;7.95;;
22841;SDS011;11587;47.064;15.444;2022-08-27T02:27:20;15.07;;;7.68;;
22841;SDS011;11587;47.064;15.444;2022-08-27T02:29:46;11.73;;;7.33;;
22841;SDS011;11587;47.064;15.444;2022-08-27T02:32:13;13.55;;;7.75;;
22841;SDS011;11587;47.064;15.444;2022-08-27T02:34:39;12.65;;;7.85;;
22841;SDS011;11587;47.064;15.444;2022-08-27T02:37:05;11.82;;;7.63;;
22841;SDS011;11587;47.064;15.444;2022-08-27T02:39:31;11.40;;;7.32;;
22841;SDS011;11587;47.064;15.444;2022-08-27T02:41:58;13.98;;;7.75;;
22841;SDS011;11587;47.064;15.444;2022-08-27T02:44:24;14.48;;;7.82;;
22841;SDS011;11587;47.064;15.444;2022-08-27T02:51:41;10.33;;;7.00;;
22841;SDS011;11587;47.064;15.444;2022-08-27T02:54:07;11.93;;;7.28;;
22841;SDS011;11587;47.064;15.444;2022-08-27T02:56:33;11.30;;;7.37;;
22841;SDS011;11587;47.064;15.444;2022-08-27T03:03:50;13.10;;;7.20;;
22841;SDS011;11587;47.064;15.444;2022-08-27T03:06:16;11.27;;;7.50;;
22841;SDS011;11587;47.064;15.444;2022-08-27T03:08:42;9.45;;;6.93;;
22841;SDS011;11587;47.064;15.444;2022-08-27T03:11:08;14.13;;;7.60;;
22841;SDS011;11587;47.064;15.444;2022-08-27T03:13:35;12.35;;;7.68;;
22841;SDS011;11587;47.064;15.444;2022-08-27T03:18:27;13.50;;;7.90;;
22841;SDS011;11587;47.064;15.444;2022-08-27T03:20:54;12.55;;;7.60;;
22841;SDS011;11587;47.064;15.444;2022-08-27T03:23:22;12.00;;;7.07;;
22841;SDS011;11587;47.064;15.444;2022-08-27T03:30:40;12.77;;;7.40;;
22841;SDS011;11587;47.064;15.444;2022-08-27T03:33:06;11.43;;;7.13;;
22841;SDS011;11587;47.064;15.444;2022-08-27T03:35:33;11.57;;;7.65;;
22841;SDS011;11587;47.064;15.444;2022-08-27T03:37:59;10.43;;;7.45;;
22841;SDS011;11587;47.064;15.444;2022-08-27T03:40:24;13.82;;;8.23;;
22841;SDS011;11587;47.064;15.444;2022-08-27T03:45:16;14.23;;;7.70;;
22841;SDS011;11587;47.064;15.444;2022-08-27T03:47:42;13.05;;;7.50;;
22841;SDS011;11587;47.064;15.444;2022-08-27T03:50:08;12.25;;;7.60;;
22841;SDS011;11587;47.064;15.444;2022-08-27T03:55:01;11.87;;;7.50;;
22841;SDS011;11587;47.064;15.444;2022-08-27T03:57:28;10.32;;;7.05;;
22841;SDS011;11587;47.064;15.444;2022-08-27T03:59:54;11.88;;;7.82;;
22841;SDS011;11587;47.064;15.444;2022-08-27T04:02:21;16.10;;;7.83;;
22841;SDS011;11587;47.064;15.444;2022-08-27T04:04:47;11.90;;;8.03;;
22841;SDS011;11587;47.064;15.444;2022-08-27T04:07:13;12.13;;;7.70;;
22841;SDS011;11587;47.064;15.444;2022-08-27T04:12:07;11.75;;;8.02;;
22841;SDS011;11587;47.064;15.444;2022-08-27T04:14:33;12.05;;;7.40;;
22841;SDS011;11587;47.064;15.444;2022-08-27T04:16:59;12.18;;;7.75;;
22841;SDS011;11587;47.064;15.444;2022-08-27T04:24:17;13.77;;;7.50;;
22841;SDS011;11587;47.064;15.444;2022-08-27T04:26:43;14.07;;;7.57;;
22841;SDS011;11587;47.064;15.444;2022-08-27T04:29:11;10.10;;;7.00;;
22841;SDS011;11587;47.064;15.444;2022-08-27T04:31:37;11.73;;;7.40;;
22841;SDS011;11587;47.064;15.444;2022-08-27T04:34:03;11.15;;;7.55;;
22841;SDS011;11587;47.064;15.444;2022-08-27T04:36:31;14.20;;;7.63;;
22841;SDS011;11587;47.064;15.444;2022-08-27T04:38:57;10.27;;;7.32;;
22841;SDS011;11587;47.064;15.444;2022-08-27T04:41:23;12.25;;;7.28;;
22841;SDS011;11587;47.064;15.444;2022-08-27T04:43:55;11.98;;;7.45;;
22841;SDS011;11587;47.064;15.444;2022-08-27T04:46:23;10.50;;;7.05;;
22841;SDS011;11587;47.064;15.444;2022-08-27T04:51:19;10.67;;;7.13;;
22841;SDS011;11587;47.064;15.444;2022-08-27T04:53:45;10.73;;;6.93;;
22841;SDS011;11587;47.064;15.444;2022-08-27T04:56:12;12.30;;;7.57;;
22841;SDS011;11587;47.064;15.444;2022-08-27T04:58:39;11.57;;;7.75;;
22841;SDS011;11587;47.064;15.444;2022-08-27T05:01:06;11.00;;;7.30;;
22841;SDS011;11587;47.064;15.444;2022-08-27T05:03:32;12.20;;;7.20;;
22841;SDS011;11587;47.064;15.444;2022-08-27T05:05:59;13.18;;;7.22;;
22841;SDS011;11587;47.064;15.444;2022-08-27T05:08:26;14.23;;;7.65;;
22841;SDS011;11587;47.064;15.444;2022-08-27T05:10:52;12.27;;;7.23;;
22841;SDS011;11587;47.064;15.444;2022-08-27T05:13:21;13.60;;;7.25;;
22841;SDS011;11587;47.064;15.444;2022-08-27T05:15:48;12.45;;;7.18;;
22841;SDS011;11587;47.064;15.444;2022-08-27T05:20:47;11.33;;;7.57;;
22841;SDS011;11587;47.064;15.444;2022-08-27T05:23:14;12.38;;;7.32;;
22841;SDS011;11587;47.064;15.444;2022-08-27T05:25:42;12.32;;;7.30;;
22841;SDS011;11587;47.064;15.444;2022-08-27T05:30:39;14.32;;;7.07;;
22841;SDS011;11587;47.064;15.444;2022-08-27T05:33:08;12.05;;;6.90;;
22841;SDS011;11587;47.064;15.444;2022-08-27T05:35:41;12.57;;;7.28;;
22841;SDS011;11587;47.064;15.444;2022-08-27T05:38:27;10.85;;;7.03;;
22841;SDS011;11587;47.064;15.444;2022-08-27T05:41:11;9.77;;;7.00;;
22841;SDS011;11587;47.064;15.444;2022-08-27T05:43:39;11.00;;;7.17;;
22841;SDS011;11587;47.064;15.444;2022-08-27T05:46:06;15.18;;;7.07;;
22841;SDS011;11587;47.064;15.444;2022-08-27T05:51:10;9.17;;;6.67;;
22841;SDS011;11587;47.064;15.444;2022-08-27T05:53:39;12.63;;;7.05;;
22841;SDS011;11587;47.064;15.444;2022-08-27T05:56:12;8.82;;;6.35;;
22841;SDS011;11587;47.064;15.444;2022-08-27T05:58:40;10.50;;;6.57;;
22841;SDS011;11587;47.064;15.444;2022-08-27T06:01:25;13.65;;;7.90;;
22841;SDS011;11587;47.064;15.444;2022-08-27T06:03:52;11.88;;;7.47;;
22841;SDS011;11587;47.064;15.444;2022-08-27T06:06:19;13.68;;;8.90;;
22841;SDS011;11587;47.064;15.444;2022-08-27T06:08:47;14.20;;;8.50;;
22841;SDS011;11587;47.064;15.444;2022-08-27T06:11:15;15.65;;;8.60;;
22841;SDS011;11587;47.064;15.444;2022-08-27T06:13:43;13.93;;;8.75;;
22841;SDS011;11587;47.064;15.444;2022-08-27T06:16:10;18.23;;;9.52;;
22841;SDS011;11587;47.064;15.444;2022-08-27T06:23:30;12.37;;;7.50;;
22841;SDS011;11587;47.064;15.444;2022-08-27T06:25:57;12.25;;;7.35;;
22841;SDS011;11587;47.064;15.444;2022-08-27T06:28:25;12.60;;;7.00;;
22841;SDS011;11587;47.064;15.444;2022-08-27T06:31:10;11.43;;;6.85;;
22841;SDS011;11587;47.064;15.444;2022-08-27T06:33:38;11.33;;;6.90;;
22841;SDS011;11587;47.064;15.444;2022-08-27T06:38:31;10.43;;;6.60;;
22841;SDS011;11587;47.064;15.444;2022-08-27T06:40:58;9.60;;;6.72;;
22841;SDS011;11587;47.064;15.444;2022-08-27T06:43:25;11.47;;;6.40;;
22841;SDS011;11587;47.064;15.444;2022-08-27T06:45:51;10.70;;;6.70;;
22841;SDS011;11587;47.064;15.444;2022-08-27T06:48:17;11.60;;;6.93;;
22841;SDS011;11587;47.064;15.444;2022-08-27T06:50:44;10.30;;;6.70;;
22841;SDS011;11587;47.064;15.444;2022-08-27T06:53:11;9.85;;;6.55;;
22841;SDS011;11587;47.064;15.444;2022-08-27T06:55:41;10.75;;;6.80;;
22841;SDS011;11587;47.064;15.444;2022-08-27T06:58:09;13.65;;;6.90;;
22841;SDS011;11587;47.064;15.444;2022-08-27T07:03:01;11.93;;;6.60;;
22841;SDS011;11587;47.064;15.444;2022-08-27T07:05:30;10.30;;;6.45;;
22841;SDS011;11587;47.064;15.444;2022-08-27T07:07:56;12.07;;;6.53;;
22841;SDS011;11587;47.064;15.444;2022-08-27T07:10:23;11.15;;;6.65;;
22841;SDS011;11587;47.064;15.444;2022-08-27T07:12:49;11.77;;;6.60;;
22841;SDS011;11587;47.064;15.444;2022-08-27T07:17:40;8.65;;;5.90;;
22841;SDS011;11587;47.064;15.444;2022-08-27T07:20:09;12.48;;;6.72;;
22841;SDS011;11587;47.064;15.444;2022-08-27T07:22:39;14.75;;;6.95;;
22841;SDS011;11587;47.064;15.444;2022-08-27T07:25:10;8.25;;;6.00;;
22841;SDS011;11587;47.064;15.444;2022-08-27T07:27:39;13.75;;;6.13;;
22841;SDS011;11587;47.064;15.444;2022-08-27T07:30:07;12.68;;;6.10;;
22841;SDS011;11587;47.064;15.444;2022-08-27T07:35:01;12.93;;;6.20;;
22841;SDS011;11587;47.064;15.444;2022-08-27T07:37:28;9.50;;;6.05;;
22841;SDS011;11587;47.064;15.444;2022-08-27T07:39:53;12.17;;;6.00;;
22841;SDS011;11587;47.064;15.444;2022-08-27T07:47:10;12.50;;;6.20;;
22841;SDS011;11587;47.064;15.444;2022-08-27T07:49:37;12.63;;;6.20;;
22841;SDS011;11587;47.064;15.444;2022-08-27T07:52:03;11.80;;;5.95;;
22841;SDS011;11587;47.064;15.444;2022-08-27T07:54:29;10.70;;;6.10;;
22841;SDS011;11587;47.064;15.444;2022-08-27T07:59:20;12.60;;;5.97;;
22841;SDS011;11587;47.064;15.444;2022-08-27T08:01:46;11.05;;;5.88;;
22841;SDS011;11587;47.064;15.444;2022-08-27T08:04:13;11.95;;;6.28;;
22841;SDS011;11587;47.064;15.444;2022-08-27T08:06:39;8.30;;;5.90;;
22841;SDS011;11587;47.064;15.444;2022-08-27T08:09:05;12.73;;;6.73;;
22841;SDS011;11587;47.064;15.444;2022-08-27T08:13:57;16.40;;;7.90;;
22841;SDS011;11587;47.064;15.444;2022-08-27T08:16:23;13.07;;;6.73;;
22841;SDS011;11587;47.064;15.444;2022-08-27T08:18:49;10.63;;;5.90;;
22841;SDS011;11587;47.064;15.444;2022-08-27T08:23:41;11.90;;;5.90;;
22841;SDS011;11587;47.064;15.444;2022-08-27T08:26:09;9.48;;;5.80;;
22841;SDS011;11587;47.064;15.444;2022-08-27T08:28:36;12.40;;;6.18;;
22841;SDS011;11587;47.064;15.444;2022-08-27T08:31:04;13.32;;;6.20;;
22841;SDS011;11587;47.064;15.444;2022-08-27T08:33:30;13.80;;;6.33;;
22841;SDS011;11587;47.064;15.444;2022-08-27T08:40:49;11.40;;;6.13;;
22841;SDS011;11587;47.064;15.444;2022-08-27T08:46:24;15.57;;;5.90;;
22841;SDS011;11587;47.064;15.444;2022-08-27T08:48:51;15.30;;;5.97;;
22841;SDS011;11587;47.064;15.444;2022-08-27T08:51:22;12.25;;;5.88;;
22841;SDS011;11587;47.064;15.444;2022-08-27T08:56:40;12.80;;;6.10;;
22841;SDS011;11587;47.064;15.444;2022-08-27T08:59:33;10.82;;;5.50;;
22841;SDS011;11587;47.064;15.444;2022-08-27T09:02:03;16.30;;;5.53;;
22841;SDS011;11587;47.064;15.444;2022-08-27T09:04:48;16.17;;;5.85;;
22841;SDS011;11587;47.064;15.444;2022-08-27T09:07:18;11.07;;;5.90;;
22841;SDS011;11587;47.064;15.444;2022-08-27T09:09:54;12.30;;;5.88;;
22841;SDS011;11587;47.064;15.444;2022-08-27T09:12:35;14.63;;;5.70;;
22841;SDS011;11587;47.064;15.444;2022-08-27T09:15:05;12.30;;;5.80;;
22841;SDS011;11587;47.064;15.444;2022-08-27T09:20:05;12.30;;;5.70;;
22841;SDS011;11587;47.064;15.444;2022-08-27T09:28:09;13.10;;;5.85;;
22841;SDS011;11587;47.064;15.444;2022-08-27T09:31:09;10.35;;;5.97;;
22841;SDS011;11587;47.064;15.444;2022-08-27T09:33:37;13.63;;;5.53;;
22841;SDS011;11587;47.064;15.444;2022-08-27T09:36:06;13.17;;;5.90;;
22841;SDS011;11587;47.064;15.444;2022-08-27T09:38:34;8.77;;;5.13;;
22841;SDS011;11587;47.064;15.444;2022-08-27T09:41:02;13.23;;;5.57;;
22841;SDS011;11587;47.064;15.444;2022-08-27T09:43:32;12.73;;;5.20;;
22841;SDS011;11587;47.064;15.444;2022-08-27T09:46:05;13.87;;;5.37;;
22841;SDS011;11587;47.064;15.444;2022-08-27T09:48:45;16.50;;;5.70;;
22841;SDS011;11587;47.064;15.444;2022-08-27T09:51:13;13.27;;;5.00;;
22841;SDS011;11587;47.064;15.444;2022-08-27T09:53:56;11.35;;;5.20;;
22841;SDS011;11587;47.064;15.444;2022-08-27T09:56:29;12.20;;;5.00;;
22841;SDS011;11587;47.064;15.444;2022-08-27T10:01:29;15.43;;;4.80;;
22841;SDS011;11587;47.064;15.444;2022-08-27T10:04:03;9.33;;;4.70;;
22841;SDS011;11587;47.064;15.444;2022-08-27T10:06:36;12.50;;;4.88;;
22841;SDS011;11587;47.064;15.444;2022-08-27T10:15:16;13.63;;;4.57;;
22841;SDS011;11587;47.064;15.444;2022-08-27T10:23:27;13.80;;;4.80;;
22841;SDS011;11587;47.064;15.444;2022-08-27T10:37:00;17.70;;;6.00;;
22841;SDS011;11587;47.064;15.444;2022-08-27T10:55:41;9.97;;;4.03;;
22841;SDS011;11587;47.064;15.444;2022-08-27T10:58:20;10.95;;;4.10;;
22841;SDS011;11587;47.064;15.444;2022-08-27T11:03:50;13.32;;;4.70;;
22841;SDS011;11587;47.064;15.444;2022-08-27T11:09:16;12.07;;;3.90;;
22841;SDS011;11587;47.064;15.444;2022-08-27T11:12:14;10.43;;;3.50;;
22841;SDS011;11587;47.064;15.444;2022-08-27T11:20:04;9.27;;;3.75;;
22841;SDS011;11587;47.064;15.444;2022-08-27T11:22:48;9.47;;;3.50;;
22841;SDS011;11587;47.064;15.444;2022-08-27T11:27:48;8.93;;;3.33;;
22841;SDS011;11587;47.064;15.444;2022-08-27T11:30:37;11.45;;;3.63;;
22841;SDS011;11587;47.064;15.444;2022-08-27T11:39:14;11.93;;;3.47;;
22841;SDS011;11587;47.064;15.444;2022-08-27T11:44:31;13.77;;;3.75;;
22841;SDS011;11587;47.064;15.444;2022-08-27T11:51:59;13.02;;;4.38;;
22841;SDS011;11587;47.064;15.444;2022-08-27T11:54:42;11.20;;;4.28;;
22841;SDS011;11587;47.064;15.444;2022-08-27T11:57:15;9.32;;;4.50;;
22841;SDS011;11587;47.064;15.444;2022-08-27T11:59:56;10.65;;;5.10;;
22841;SDS011;11587;47.064;15.444;2022-08-27T12:02:26;18.05;;;5.03;;
22841;SDS011;11587;47.064;15.444;2022-08-27T12:12:38;9.00;;;3.78;;
22841;SDS011;11587;47.064;15.444;2022-08-27T12:15:15;11.10;;;3.87;;
22841;SDS011;11587;47.064;15.444;2022-08-27T12:29:50;12.40;;;3.33;;
22841;SDS011;11587;47.064;15.444;2022-08-27T12:35:18;11.45;;;3.42;;
22841;SDS011;11587;47.064;15.444;2022-08-27T12:40:17;10.35;;;3.72;;
22841;SDS011;11587;47.064;15.444;2022-08-27T12:43:02;11.45;;;3.90;;
22841;SDS011;11587;47.064;15.444;2022-08-27T12:45:29;10.93;;;3.72;;
22841;SDS011;11587;47.064;15.444;2022-08-27T12:47:55;11.90;;;4.18;;
22841;SDS011;11587;47.064;15.444;2022-08-27T12:50:23;11.07;;;3.77;;
22841;SDS011;11587;47.064;15.444;2022-08-27T13:03:28;13.68;;;5.03;;
22841;SDS011;11587;47.064;15.444;2022-08-27T13:06:01;14.77;;;5.57;;
22841;SDS011;11587;47.064;15.444;2022-08-27T13:09:00;13.52;;;4.93;;
22841;SDS011;11587;47.064;15.444;2022-08-27T13:11:33;12.53;;;4.93;;
22841;SDS011;11587;47.064;15.444;2022-08-27T13:14:09;10.25;;;4.53;;
22841;SDS011;11587;47.064;15.444;2022-08-27T13:16:56;10.95;;;4.75;;
22841;SDS011;11587;47.064;15.444;2022-08-27T13:24:19;9.83;;;4.80;;
22841;SDS011;11587;47.064;15.444;2022-08-27T13:26:51;14.73;;;4.80;;
22841;SDS011;11587;47.064;15.444;2022-08-27T13:29:22;10.03;;;3.80;;
22841;SDS011;11587;47.064;15.444;2022-08-27T13:31:49;9.20;;;3.75;;
22841;SDS011;11587;47.064;15.444;2022-08-27T13:34:17;8.70;;;3.83;;
22841;SDS011;11587;47.064;15.444;2022-08-27T13:39:11;8.20;;;3.90;;
22841;SDS011;11587;47.064;15.444;2022-08-27T13:41:37;9.80;;;3.95;;
22841;SDS011;11587;47.064;15.444;2022-08-27T13:44:27;8.27;;;4.00;;
22841;SDS011;11587;47.064;15.444;2022-08-27T13:47:03;7.50;;;3.70;;
22841;SDS011;11587;47.064;15.444;2022-08-27T13:49:36;10.93;;;4.00;;
22841;SDS011;11587;47.064;15.444;2022-08-27T13:54:28;7.93;;;3.73;;
22841;SDS011;11587;47.064;15.444;2022-08-27T13:57:00;7.38;;;4.00;;
22841;SDS011;11587;47.064;15.444;2022-08-27T13:59:34;8.45;;;3.42;;
22841;SDS011;11587;47.064;15.444;2022-08-27T14:04:37;7.87;;;3.70;;
22841;SDS011;11587;47.064;15.444;2022-08-27T14:07:07;6.80;;;3.45;;
22841;SDS011;11587;47.064;15.444;2022-08-27T14:09:46;6.80;;;3.58;;
22841;SDS011;11587;47.064;15.444;2022-08-27T14:12:26;7.50;;;3.63;;
22841;SDS011;11587;47.064;15.444;2022-08-27T14:14:58;8.80;;;4.10;;
22841;SDS011;11587;47.064;15.444;2022-08-27T14:17:40;7.25;;;3.75;;
22841;SDS011;11587;47.064;15.444;2022-08-27T14:20:10;7.15;;;3.72;;
22841;SDS011;11587;47.064;15.444;2022-08-27T14:22:35;9.53;;;4.10;;
22841;SDS011;11587;47.064;15.444;2022-08-27T14:25:01;8.40;;;3.75;;
22841;SDS011;11587;47.064;15.444;2022-08-27T14:29:53;6.90;;;3.50;;
22841;SDS011;11587;47.064;15.444;2022-08-27T14:32:19;7.50;;;3.83;;
22841;SDS011;11587;47.064;15.444;2022-08-27T14:34:46;9.25;;;3.95;;
22841;SDS011;11587;47.064;15.444;2022-08-27T14:37:12;8.65;;;3.85;;
22841;SDS011;11587;47.064;15.444;2022-08-27T14:39:39;7.07;;;4.00;;
22841;SDS011;11587;47.064;15.444;2022-08-27T14:42:07;6.45;;;3.97;;
22841;SDS011;11587;47.064;15.444;2022-08-27T14:44:34;11.13;;;4.15;;
22841;SDS011;11587;47.064;15.444;2022-08-27T14:47:01;9.82;;;4.38;;
22841;SDS011;11587;47.064;15.444;2022-08-27T14:49:30;9.80;;;5.40;;
22841;SDS011;11587;47.064;15.444;2022-08-27T14:56:53;7.47;;;3.95;;
22841;SDS011;11587;47.064;15.444;2022-08-27T14:59:20;7.03;;;3.80;;
22841;SDS011;11587;47.064;15.444;2022-08-27T15:01:46;8.32;;;4.00;;
22841;SDS011;11587;47.064;15.444;2022-08-27T15:04:12;6.30;;;3.85;;
22841;SDS011;11587;47.064;15.444;2022-08-27T15:06:39;11.82;;;4.78;;
22841;SDS011;11587;47.064;15.444;2022-08-27T15:09:05;13.57;;;6.10;;
22841;SDS011;11587;47.064;15.444;2022-08-27T15:11:32;14.30;;;7.05;;
22841;SDS011;11587;47.064;15.444;2022-08-27T15:14:02;23.88;;;9.23;;
22841;SDS011;11587;47.064;15.444;2022-08-27T15:16:34;19.10;;;8.77;;
22841;SDS011;11587;47.064;15.444;2022-08-27T15:19:06;13.80;;;8.15;;
22841;SDS011;11587;47.064;15.444;2022-08-27T15:24:00;14.82;;;7.85;;
22841;SDS011;11587;47.064;15.444;2022-08-27T15:26:28;16.80;;;8.90;;
22841;SDS011;11587;47.064;15.444;2022-08-27T15:28:55;12.95;;;8.73;;
22841;SDS011;11587;47.064;15.444;2022-08-27T15:31:21;13.30;;;8.05;;
22841;SDS011;11587;47.064;15.444;2022-08-27T15:33:47;12.07;;;8.10;;
22841;SDS011;11587;47.064;15.444;2022-08-27T15:36:13;12.05;;;7.70;;
22841;SDS011;11587;47.064;15.444;2022-08-27T15:38:39;10.93;;;7.40;;
22841;SDS011;11587;47.064;15.444;2022-08-27T15:41:06;10.23;;;7.60;;
22841;SDS011;11587;47.064;15.444;2022-08-27T15:43:34;10.65;;;7.05;;
22841;SDS011;11587;47.064;15.444;2022-08-27T15:46:02;10.40;;;7.67;;
22841;SDS011;11587;47.064;15.444;2022-08-27T15:50:54;9.33;;;6.63;;
22841;SDS011;11587;47.064;15.444;2022-08-27T15:53:20;13.93;;;8.70;;
22841;SDS011;11587;47.064;15.444;2022-08-27T15:55:50;15.65;;;9.43;;
22841;SDS011;11587;47.064;15.444;2022-08-27T15:58:16;52.65;;;15.38;;
22841;SDS011;11587;47.064;15.444;2022-08-27T16:03:08;36.97;;;13.97;;
22841;SDS011;11587;47.064;15.444;2022-08-27T16:05:37;1.60;;;0.80;;
22841;SDS011;11587;47.064;15.444;2022-08-27T16:08:05;2.45;;;0.85;;
22841;SDS011;11587;47.064;15.444;2022-08-27T16:10:32;1.65;;;0.73;;
22841;SDS011;11587;47.064;15.444;2022-08-27T16:12:57;1.70;;;0.45;;
22841;SDS011;11587;47.064;15.444;2022-08-27T16:17:50;1.48;;;0.70;;
22841;SDS011;11587;47.064;15.444;2022-08-27T16:20:20;0.50;;;0.50;;
22841;SDS011;11587;47.064;15.444;2022-08-27T16:22:48;1.63;;;0.82;;
22841;SDS011;11587;47.064;15.444;2022-08-27T16:25:14;1.00;;;0.90;;
22841;SDS011;11587;47.064;15.444;2022-08-27T16:27:40;0.50;;;0.50;;
22841;SDS011;11587;47.064;15.444;2022-08-27T16:32:31;2.80;;;0.80;;
22841;SDS011;11587;47.064;15.444;2022-08-27T16:34:58;1.45;;;0.52;;
22841;SDS011;11587;47.064;15.444;2022-08-27T16:37:24;0.35;;;0.35;;
22841;SDS011;11587;47.064;15.444;2022-08-27T16:39:50;0.85;;;0.85;;
22841;SDS011;11587;47.064;15.444;2022-08-27T16:47:08;0.85;;;0.70;;
22841;SDS011;11587;47.064;15.444;2022-08-27T16:49:34;1.10;;;0.73;;
22841;SDS011;11587;47.064;15.444;2022-08-27T16:52:19;1.48;;;0.90;;
22841;SDS011;11587;47.064;15.444;2022-08-27T16:54:46;0.80;;;0.45;;
22841;SDS011;11587;47.064;15.444;2022-08-27T16:57:13;3.50;;;0.85;;
22841;SDS011;11587;47.064;15.444;2022-08-27T17:02:04;0.40;;;0.40;;
22841;SDS011;11587;47.064;15.444;2022-08-27T17:04:38;0.90;;;0.77;;
22841;SDS011;11587;47.064;15.444;2022-08-27T17:07:04;0.63;;;0.50;;
22841;SDS011;11587;47.064;15.444;2022-08-27T17:09:29;0.37;;;0.37;;
22841;SDS011;11587;47.064;15.444;2022-08-27T17:14:21;0.90;;;0.67;;
22841;SDS011;11587;47.064;15.444;2022-08-27T17:16:47;0.67;;;0.60;;
22841;SDS011;11587;47.064;15.444;2022-08-27T17:19:14;0.80;;;0.55;;
22841;SDS011;11587;47.064;15.444;2022-08-27T17:21:41;0.80;;;0.45;;
22841;SDS011;11587;47.064;15.444;2022-08-27T17:28:59;3.83;;;1.00;;
22841;SDS011;11587;47.064;15.444;2022-08-27T17:31:29;0.65;;;0.45;;
22841;SDS011;11587;47.064;15.444;2022-08-27T17:33:58;0.38;;;0.38;;
22841;SDS011;11587;47.064;15.444;2022-08-27T17:36:25;0.63;;;0.40;;
22841;SDS011;11587;47.064;15.444;2022-08-27T17:38:53;0.80;;;0.80;;
22841;SDS011;11587;47.064;15.444;2022-08-27T17:43:47;0.57;;;0.47;;
22841;SDS011;11587;47.064;15.444;2022-08-27T17:46:13;1.73;;;0.60;;
22841;SDS011;11587;47.064;15.444;2022-08-27T17:48:40;0.85;;;0.60;;
22841;SDS011;11587;47.064;15.444;2022-08-27T17:55:57;0.90;;;0.70;;
22841;SDS011;11587;47.064;15.444;2022-08-27T17:58:23;0.95;;;0.52;;
22841;SDS011;11587;47.064;15.444;2022-08-27T18:00:49;0.25;;;0.25;;
22841;SDS011;11587;47.064;15.444;2022-08-27T18:03:16;0.30;;;0.30;;
22841;SDS011;11587;47.064;15.444;2022-08-27T18:05:44;0.70;;;0.30;;
22841;SDS011;11587;47.064;15.444;2022-08-27T18:08:11;0.40;;;0.30;;
22841;SDS011;11587;47.064;15.444;2022-08-27T18:10:39;0.38;;;0.38;;
22841;SDS011;11587;47.064;15.444;2022-08-27T18:13:06;1.20;;;0.70;;
22841;SDS011;11587;47.064;15.444;2022-08-27T18:15:33;2.00;;;0.50;;
22841;SDS011;11587;47.064;15.444;2022-08-27T18:22:54;0.90;;;0.68;;
22841;SDS011;11587;47.064;15.444;2022-08-27T18:25:21;0.40;;;0.40;;
22841;SDS011;11587;47.064;15.444;2022-08-27T18:27:49;0.47;;;0.43;;
22841;SDS011;11587;47.064;15.444;2022-08-27T18:30:21;0.50;;;0.40;;
22841;SDS011;11587;47.064;15.444;2022-08-27T18:32:48;0.40;;;0.40;;
22841;SDS011;11587;47.064;15.444;2022-08-27T18:35:16;0.47;;;0.38;;
22841;SDS011;11587;47.064;15.444;2022-08-27T18:37:43;0.75;;;0.50;;
22841;SDS011;11587;47.064;15.444;2022-08-27T18:40:10;0.50;;;0.50;;
22841;SDS011;11587;47.064;15.444;2022-08-27T18:42:38;0.60;;;0.50;;
22841;SDS011;11587;47.064;15.444;2022-08-27T18:45:09;0.85;;;0.45;;
22841;SDS011;11587;47.064;15.444;2022-08-27T18:50:05;1.07;;;0.57;;
22841;SDS011;11587;47.064;15.444;2022-08-27T18:52:33;0.63;;;0.40;;
22841;SDS011;11587;47.064;15.444;2022-08-27T18:55:02;1.80;;;0.40;;
22841;SDS011;11587;47.064;15.444;2022-08-27T18:57:32;1.00;;;0.50;;
22841;SDS011;11587;47.064;15.444;2022-08-27T18:59:58;0.90;;;0.55;;
22841;SDS011;11587;47.064;15.444;2022-08-27T19:04:49;0.50;;;0.22;;
22841;SDS011;11587;47.064;15.444;2022-08-27T19:07:15;0.45;;;0.43;;
22841;SDS011;11587;47.064;15.444;2022-08-27T19:09:41;1.00;;;0.40;;
22841;SDS011;11587;47.064;15.444;2022-08-27T19:12:07;2.70;;;1.50;;